sensor_id;sensor_type;location;lat;lon;timestamp;pressure;altitude;pressure_sealevel;temperature;humidity
65614;BME280;52283;49.292;10.572;2023-03-03T00:00:00;96631.53;;;1.23;100.00
65614;BME280;52283;49.292;10.572;2023-03-03T00:02:27;96633.44;;;1.26;100.00
65614;BME280;52283;49.292;10.572;2023-03-03T00:04:54;96632.56;;;1.42;100.00
65614;BME280;52283;49.292;10.572;2023-03-03T00:07:20;96624.41;;;1.26;100.00
65614;BME280;52283;49.292;10.572;2023-03-03T00:09:47;96629.16;;;1.38;100.00
65614;BME280;52283;49.292;10.572;2023-03-03T00:12:22;96628.38;;;1.37;100.00
65614;BME280;52283;49.292;10.572;2023-03-03T00:14:49;96631.91;;;1.38;100.00
65614;BME280;52283;49.292;10.572;2023-03-03T00:17:20;96633.44;;;1.26;100.00
65614;BME280;52283;49.292;10.572;2023-03-03T00:19:47;96631.53;;;1.23;100.00
65614;BME280;52283;49.292;10.572;2023-03-03T00:22:19;96630.72;;;0.68;100.00
65614;BME280;52283;49.292;10.572;2023-03-03T00:24:47;96619.97;;;0.74;100.00
65614;BME280;52283;49.292;10.572;2023-03-03T00:27:21;96611.00;;;0.99;100.00
65614;BME280;52283;49.292;10.572;2023-03-03T00:29:52;96622.28;;;1.17;100.00
65614;BME280;52283;49.292;10.572;2023-03-03T00:32:25;96625.75;;;0.92;100.00
65614;BME280;52283;49.292;10.572;2023-03-03T00:34:53;96628.50;;;0.92;100.00
65614;BME280;52283;49.292;10.572;2023-03-03T00:37:28;96634.28;;;0.81;100.00
65614;BME280;52283;49.292;10.572;2023-03-03T00:40:00;96631.94;;;0.67;100.00
65614;BME280;52283;49.292;10.572;2023-03-03T00:42:36;96625.59;;;0.54;100.00
65614;BME280;52283;49.292;10.572;2023-03-03T00:45:07;96632.22;;;0.40;100.00
65614;BME280;52283;49.292;10.572;2023-03-03T00:47:43;96630.31;;;0.53;100.00
65614;BME280;52283;49.292;10.572;2023-03-03T00:50:22;96636.13;;;0.43;100.00
65614;BME280;52283;49.292;10.572;2023-03-03T00:53:04;96635.69;;;0.44;100.00
65614;BME280;52283;49.292;10.572;2023-03-03T00:55:31;96637.16;;;0.33;100.00
65614;BME280;52283;49.292;10.572;2023-03-03T00:57:59;96651.31;;;0.47;100.00
65614;BME280;52283;49.292;10.572;2023-03-03T01:00:26;96650.53;;;0.47;100.00
65614;BME280;52283;49.292;10.572;2023-03-03T01:02:53;96650.47;;;0.34;100.00
65614;BME280;52283;49.292;10.572;2023-03-03T01:05:20;96647.28;;;0.36;100.00
65614;BME280;52283;49.292;10.572;2023-03-03T01:07:47;96647.81;;;-0.02;100.00
65614;BME280;52283;49.292;10.572;2023-03-03T01:10:13;96642.31;;;-0.18;100.00
65614;BME280;52283;49.292;10.572;2023-03-03T01:12:40;96640.94;;;0.22;100.00
65614;BME280;52283;49.292;10.572;2023-03-03T01:15:09;96641.97;;;0.28;100.00
65614;BME280;52283;49.292;10.572;2023-03-03T01:17:36;96632.53;;;-0.03;100.00
65614;BME280;52283;49.292;10.572;2023-03-03T01:20:05;96630.13;;;-0.01;100.00
65614;BME280;52283;49.292;10.572;2023-03-03T01:22:31;96624.72;;;0.28;100.00
65614;BME280;52283;49.292;10.572;2023-03-03T01:24:58;96617.22;;;0.28;100.00
65614;BME280;52283;49.292;10.572;2023-03-03T01:27:24;96628.28;;;0.41;100.00
65614;BME280;52283;49.292;10.572;2023-03-03T01:29:52;96615.66;;;0.44;100.00
65614;BME280;52283;49.292;10.572;2023-03-03T01:32:22;96631.03;;;0.41;100.00
65614;BME280;52283;49.292;10.572;2023-03-03T01:34:48;96629.59;;;0.20;100.00
65614;BME280;52283;49.292;10.572;2023-03-03T01:37:14;96620.50;;;0.07;100.00
65614;BME280;52283;49.292;10.572;2023-03-03T01:39:41;96631.31;;;0.30;100.00
65614;BME280;52283;49.292;10.572;2023-03-03T01:42:07;96620.41;;;0.27;100.00
65614;BME280;52283;49.292;10.572;2023-03-03T01:44:34;96621.97;;;0.28;100.00
65614;BME280;52283;49.292;10.572;2023-03-03T01:47:04;96625.28;;;0.19;100.00
65614;BME280;52283;49.292;10.572;2023-03-03T01:49:36;96624.91;;;0.05;100.00
65614;BME280;52283;49.292;10.572;2023-03-03T01:52:11;96624.53;;;-0.30;100.00
65614;BME280;52283;49.292;10.572;2023-03-03T01:54:41;96618.09;;;-0.07;100.00
65614;BME280;52283;49.292;10.572;2023-03-03T01:57:12;96615.88;;;-0.12;100.00
65614;BME280;52283;49.292;10.572;2023-03-03T01:59:43;96618.94;;;-0.26;100.00
65614;BME280;52283;49.292;10.572;2023-03-03T02:02:12;96619.06;;;0.03;100.00
65614;BME280;52283;49.292;10.572;2023-03-03T02:04:40;96626.25;;;0.13;100.00
65614;BME280;52283;49.292;10.572;2023-03-03T02:07:08;96623.00;;;-0.15;100.00
65614;BME280;52283;49.292;10.572;2023-03-03T02:09:41;96616.53;;;-0.24;100.00
65614;BME280;52283;49.292;10.572;2023-03-03T02:12:11;96613.31;;;-0.19;100.00
65614;BME280;52283;49.292;10.572;2023-03-03T02:14:39;96602.22;;;-0.16;100.00
65614;BME280;52283;49.292;10.572;2023-03-03T02:17:05;96619.22;;;-0.05;100.00
65614;BME280;52283;49.292;10.572;2023-03-03T02:19:37;96615.34;;;-0.23;100.00
65614;BME280;52283;49.292;10.572;2023-03-03T02:22:10;96618.34;;;-0.34;100.00
65614;BME280;52283;49.292;10.572;2023-03-03T02:24:42;96622.38;;;-0.39;100.00
65614;BME280;52283;49.292;10.572;2023-03-03T02:27:12;96621.84;;;-0.50;100.00
65614;BME280;52283;49.292;10.572;2023-03-03T02:29:38;96619.69;;;-0.42;100.00
65614;BME280;52283;49.292;10.572;2023-03-03T02:32:05;96617.22;;;-0.53;100.00
65614;BME280;52283;49.292;10.572;2023-03-03T02:34:44;96618.63;;;-0.65;100.00
65614;BME280;52283;49.292;10.572;2023-03-03T02:37:11;96618.28;;;-0.67;100.00
65614;BME280;52283;49.292;10.572;2023-03-03T02:39:38;96618.84;;;-0.55;100.00
65614;BME280;52283;49.292;10.572;2023-03-03T02:42:07;96615.53;;;-0.67;100.00
65614;BME280;52283;49.292;10.572;2023-03-03T02:44:36;96614.91;;;-0.38;100.00
65614;BME280;52283;49.292;10.572;2023-03-03T02:47:03;96618.25;;;-0.31;100.00
65614;BME280;52283;49.292;10.572;2023-03-03T02:49:31;96618.59;;;-0.28;100.00
65614;BME280;52283;49.292;10.572;2023-03-03T02:51:59;96622.31;;;-0.35;100.00
65614;BME280;52283;49.292;10.572;2023-03-03T02:54:27;96623.72;;;-0.47;100.00
65614;BME280;52283;49.292;10.572;2023-03-03T02:56:55;96624.47;;;-0.63;100.00
65614;BME280;52283;49.292;10.572;2023-03-03T02:59:21;96635.19;;;-0.68;100.00
65614;BME280;52283;49.292;10.572;2023-03-03T03:01:50;96629.72;;;-0.88;100.00
65614;BME280;52283;49.292;10.572;2023-03-03T03:04:19;96626.41;;;-0.79;100.00
65614;BME280;52283;49.292;10.572;2023-03-03T03:06:46;96618.72;;;-0.68;100.00
65614;BME280;52283;49.292;10.572;2023-03-03T03:09:14;96619.69;;;-0.58;100.00
65614;BME280;52283;49.292;10.572;2023-03-03T03:11:41;96614.28;;;-0.62;100.00
65614;BME280;52283;49.292;10.572;2023-03-03T03:14:09;96620.28;;;-0.51;100.00
65614;BME280;52283;49.292;10.572;2023-03-03T03:16:36;96622.28;;;-0.51;100.00
65614;BME280;52283;49.292;10.572;2023-03-03T03:19:04;96618.72;;;-0.68;100.00
65614;BME280;52283;49.292;10.572;2023-03-03T03:21:32;96617.88;;;-0.85;100.00
65614;BME280;52283;49.292;10.572;2023-03-03T03:23:59;96620.41;;;-0.74;100.00
65614;BME280;52283;49.292;10.572;2023-03-03T03:26:26;96616.06;;;-0.92;100.00
65614;BME280;52283;49.292;10.572;2023-03-03T03:28:52;96620.59;;;-0.81;100.00
65614;BME280;52283;49.292;10.572;2023-03-03T03:31:19;96620.25;;;-0.67;100.00
65614;BME280;52283;49.292;10.572;2023-03-03T03:33:46;96624.84;;;-0.60;100.00
65614;BME280;52283;49.292;10.572;2023-03-03T03:36:14;96626.16;;;-0.69;100.00
65614;BME280;52283;49.292;10.572;2023-03-03T03:38:41;96624.47;;;-0.63;100.00
65614;BME280;52283;49.292;10.572;2023-03-03T03:41:07;96631.16;;;-0.64;100.00
65614;BME280;52283;49.292;10.572;2023-03-03T03:43:34;96635.63;;;-0.89;100.00
65614;BME280;52283;49.292;10.572;2023-03-03T03:46:01;96630.13;;;-0.70;100.00
65614;BME280;52283;49.292;10.572;2023-03-03T03:48:27;96629.81;;;-0.55;100.00
65614;BME280;52283;49.292;10.572;2023-03-03T03:50:54;96627.00;;;-0.52;100.00
65614;BME280;52283;49.292;10.572;2023-03-03T03:53:22;96637.72;;;-0.57;100.00
65614;BME280;52283;49.292;10.572;2023-03-03T03:55:48;96635.72;;;-0.57;100.00
65614;BME280;52283;49.292;10.572;2023-03-03T03:58:16;96632.66;;;-0.59;100.00
65614;BME280;52283;49.292;10.572;2023-03-03T04:00:44;96631.22;;;-0.67;100.00
65614;BME280;52283;49.292;10.572;2023-03-03T04:03:11;96632.13;;;-0.54;100.00
65614;BME280;52283;49.292;10.572;2023-03-03T04:05:38;96628.50;;;-0.87;100.00
65614;BME280;52283;49.292;10.572;2023-03-03T04:08:05;96632.53;;;-0.92;100.00
65614;BME280;52283;49.292;10.572;2023-03-03T04:10:33;96636.06;;;-0.91;100.00
65614;BME280;52283;49.292;10.572;2023-03-03T04:13:00;96634.38;;;-1.05;100.00
65614;BME280;52283;49.292;10.572;2023-03-03T04:15:26;96637.81;;;-1.20;100.00
65614;BME280;52283;49.292;10.572;2023-03-03T04:17:52;96641.81;;;-1.05;100.00
65614;BME280;52283;49.292;10.572;2023-03-03T04:20:19;96634.59;;;-1.15;100.00
65614;BME280;52283;49.292;10.572;2023-03-03T04:22:45;96627.41;;;-0.89;100.00
65614;BME280;52283;49.292;10.572;2023-03-03T04:25:14;96630.88;;;-0.69;100.00
65614;BME280;52283;49.292;10.572;2023-03-03T04:27:43;96624.63;;;-0.70;100.00
65614;BME280;52283;49.292;10.572;2023-03-03T04:30:11;96625.06;;;-0.71;100.00
65614;BME280;52283;49.292;10.572;2023-03-03T04:32:37;96623.00;;;-0.67;100.00
65614;BME280;52283;49.292;10.572;2023-03-03T04:35:04;96623.59;;;-0.76;100.00
65614;BME280;52283;49.292;10.572;2023-03-03T04:37:31;96623.38;;;-0.85;100.00
65614;BME280;52283;49.292;10.572;2023-03-03T04:39:57;96634.31;;;-0.65;100.00
65614;BME280;52283;49.292;10.572;2023-03-03T04:42:24;96634.44;;;-0.88;100.00
65614;BME280;52283;49.292;10.572;2023-03-03T04:44:53;96630.50;;;-1.07;100.00
65614;BME280;52283;49.292;10.572;2023-03-03T04:47:20;96637.41;;;-0.99;100.00
65614;BME280;52283;49.292;10.572;2023-03-03T04:49:46;96634.16;;;-0.94;100.00
65614;BME280;52283;49.292;10.572;2023-03-03T04:52:13;96644.13;;;-0.84;100.00
65614;BME280;52283;49.292;10.572;2023-03-03T04:54:39;96637.66;;;-0.74;100.00
65614;BME280;52283;49.292;10.572;2023-03-03T04:57:06;96643.00;;;-0.86;100.00
65614;BME280;52283;49.292;10.572;2023-03-03T04:59:33;96643.22;;;-0.77;100.00
65614;BME280;52283;49.292;10.572;2023-03-03T05:02:02;96643.31;;;-1.20;100.00
65614;BME280;52283;49.292;10.572;2023-03-03T05:04:29;96651.47;;;-1.17;100.00
65614;BME280;52283;49.292;10.572;2023-03-03T05:06:55;96659.63;;;-0.94;100.00
65614;BME280;52283;49.292;10.572;2023-03-03T05:09:22;96654.97;;;-0.77;100.00
65614;BME280;52283;49.292;10.572;2023-03-03T05:11:48;96655.75;;;-0.76;100.00
65614;BME280;52283;49.292;10.572;2023-03-03T05:14:15;96651.03;;;-0.96;100.00
65614;BME280;52283;49.292;10.572;2023-03-03T05:16:42;96653.56;;;-0.85;100.00
65614;BME280;52283;49.292;10.572;2023-03-03T05:19:10;96649.91;;;-0.78;100.00
65614;BME280;52283;49.292;10.572;2023-03-03T05:21:36;96662.09;;;-0.99;100.00
65614;BME280;52283;49.292;10.572;2023-03-03T05:24:06;96656.31;;;-1.05;100.00
65614;BME280;52283;49.292;10.572;2023-03-03T05:26:33;96656.53;;;-0.96;100.00
65614;BME280;52283;49.292;10.572;2023-03-03T05:29:00;96660.13;;;-0.99;100.00
65614;BME280;52283;49.292;10.572;2023-03-03T05:31:26;96660.81;;;-0.95;100.00
65614;BME280;52283;49.292;10.572;2023-03-03T05:33:53;96670.03;;;-0.85;100.00
65614;BME280;52283;49.292;10.572;2023-03-03T05:36:21;96670.75;;;-0.81;100.00
65614;BME280;52283;49.292;10.572;2023-03-03T05:38:47;96662.03;;;-0.96;100.00
65614;BME280;52283;49.292;10.572;2023-03-03T05:41:14;96667.94;;;-0.97;100.00
65614;BME280;52283;49.292;10.572;2023-03-03T05:43:40;96667.94;;;-0.97;100.00
65614;BME280;52283;49.292;10.572;2023-03-03T05:46:07;96668.19;;;-0.92;100.00
65614;BME280;52283;49.292;10.572;2023-03-03T05:48:33;96675.94;;;-0.86;100.00
65614;BME280;52283;49.292;10.572;2023-03-03T05:51:00;96675.22;;;-0.90;100.00
65614;BME280;52283;49.292;10.572;2023-03-03T05:53:28;96676.00;;;-1.10;100.00
65614;BME280;52283;49.292;10.572;2023-03-03T05:55:55;96677.47;;;-0.85;100.00
65614;BME280;52283;49.292;10.572;2023-03-03T05:58:21;96683.31;;;-0.83;100.00
65614;BME280;52283;49.292;10.572;2023-03-03T06:00:48;96684.13;;;-0.83;100.00
65614;BME280;52283;49.292;10.572;2023-03-03T06:03:14;96682.81;;;-1.18;100.00
65614;BME280;52283;49.292;10.572;2023-03-03T06:05:41;96689.69;;;-1.30;100.00
65614;BME280;52283;49.292;10.572;2023-03-03T06:08:07;96694.66;;;-1.68;100.00
65614;BME280;52283;49.292;10.572;2023-03-03T06:10:35;96699.75;;;-1.93;100.00
65614;BME280;52283;49.292;10.572;2023-03-03T06:13:02;96687.97;;;-1.90;100.00
65614;BME280;52283;49.292;10.572;2023-03-03T06:15:28;96699.25;;;-2.11;100.00
65614;BME280;52283;49.292;10.572;2023-03-03T06:17:55;96700.59;;;-1.96;100.00
65614;BME280;52283;49.292;10.572;2023-03-03T06:20:21;96705.53;;;-1.88;100.00
65614;BME280;52283;49.292;10.572;2023-03-03T06:22:48;96700.47;;;-1.89;100.00
65614;BME280;52283;49.292;10.572;2023-03-03T06:25:14;96703.34;;;-1.73;100.00
65614;BME280;52283;49.292;10.572;2023-03-03T06:27:42;96710.03;;;-1.74;100.00
65614;BME280;52283;49.292;10.572;2023-03-03T06:30:10;96721.81;;;-1.77;100.00
65614;BME280;52283;49.292;10.572;2023-03-03T06:32:37;96720.41;;;-1.85;100.00
65614;BME280;52283;49.292;10.572;2023-03-03T06:35:04;96718.25;;;-1.74;100.00
65614;BME280;52283;49.292;10.572;2023-03-03T06:37:30;96731.81;;;-1.67;100.00
65614;BME280;52283;49.292;10.572;2023-03-03T06:39:57;96728.69;;;-1.65;100.00
65614;BME280;52283;49.292;10.572;2023-03-03T06:42:23;96732.09;;;-1.58;100.00
65614;BME280;52283;49.292;10.572;2023-03-03T06:44:51;96721.69;;;-1.46;100.00
65614;BME280;52283;49.292;10.572;2023-03-03T06:47:18;96729.81;;;-1.39;100.00
65614;BME280;52283;49.292;10.572;2023-03-03T06:49:44;96733.09;;;-1.25;100.00
65614;BME280;52283;49.292;10.572;2023-03-03T06:52:12;96739.19;;;-1.37;100.00
65614;BME280;52283;49.292;10.572;2023-03-03T06:54:39;96747.97;;;-1.26;100.00
65614;BME280;52283;49.292;10.572;2023-03-03T06:57:15;96762.47;;;-1.25;100.00
65614;BME280;52283;49.292;10.572;2023-03-03T06:59:42;96755.25;;;-1.15;100.00
65614;BME280;52283;49.292;10.572;2023-03-03T07:02:14;96758.53;;;-1.01;100.00
65614;BME280;52283;49.292;10.572;2023-03-03T07:04:41;96756.63;;;-1.04;100.00
65614;BME280;52283;49.292;10.572;2023-03-03T07:07:15;96747.00;;;-0.92;100.00
65614;BME280;52283;49.292;10.572;2023-03-03T07:09:43;96744.66;;;-0.94;100.00
65614;BME280;52283;49.292;10.572;2023-03-03T07:12:12;96753.19;;;-0.88;100.00
65614;BME280;52283;49.292;10.572;2023-03-03T07:14:40;96761.00;;;-0.67;100.00
65614;BME280;52283;49.292;10.572;2023-03-03T07:17:10;96755.44;;;-0.63;100.00
65614;BME280;52283;49.292;10.572;2023-03-03T07:19:42;96755.59;;;-0.70;100.00
65614;BME280;52283;49.292;10.572;2023-03-03T07:22:14;96755.94;;;-0.68;100.00
65614;BME280;52283;49.292;10.572;2023-03-03T07:24:42;96749.25;;;-0.67;100.00
65614;BME280;52283;49.292;10.572;2023-03-03T07:27:12;96760.88;;;-0.79;100.00
65614;BME280;52283;49.292;10.572;2023-03-03T07:29:39;96761.22;;;-0.77;100.00
65614;BME280;52283;49.292;10.572;2023-03-03T07:32:20;96764.88;;;-0.64;100.00
65614;BME280;52283;49.292;10.572;2023-03-03T07:34:51;96764.41;;;-0.59;100.00
65614;BME280;52283;49.292;10.572;2023-03-03T07:37:25;96768.47;;;-0.67;100.00
65614;BME280;52283;49.292;10.572;2023-03-03T07:39:53;96772.28;;;-0.61;100.00
65614;BME280;52283;49.292;10.572;2023-03-03T07:42:21;96771.84;;;-0.40;100.00
65614;BME280;52283;49.292;10.572;2023-03-03T07:44:53;96773.84;;;-0.40;100.00
65614;BME280;52283;49.292;10.572;2023-03-03T07:47:23;96778.94;;;-0.42;100.00
65614;BME280;52283;49.292;10.572;2023-03-03T07:49:53;96783.66;;;-0.63;100.00
65614;BME280;52283;49.292;10.572;2023-03-03T07:52:25;96789.28;;;-0.70;100.00
65614;BME280;52283;49.292;10.572;2023-03-03T07:54:54;96785.34;;;-0.49;100.00
65614;BME280;52283;49.292;10.572;2023-03-03T07:57:24;96780.38;;;-0.54;100.00
65614;BME280;52283;49.292;10.572;2023-03-03T07:59:52;96780.53;;;-0.41;100.00
65614;BME280;52283;49.292;10.572;2023-03-03T08:02:33;96782.69;;;-0.33;100.00
65614;BME280;52283;49.292;10.572;2023-03-03T08:05:21;96787.56;;;-0.40;100.00
65614;BME280;52283;49.292;10.572;2023-03-03T08:07:51;96780.75;;;0.04;100.00
65614;BME280;52283;49.292;10.572;2023-03-03T08:10:31;96786.38;;;0.33;100.00
65614;BME280;52283;49.292;10.572;2023-03-03T08:13:04;96788.69;;;1.00;100.00
65614;BME280;52283;49.292;10.572;2023-03-03T08:15:36;96790.84;;;1.37;100.00
65614;BME280;52283;49.292;10.572;2023-03-03T08:18:15;96790.94;;;1.63;100.00
65614;BME280;52283;49.292;10.572;2023-03-03T08:20:47;96784.91;;;1.68;100.00
65614;BME280;52283;49.292;10.572;2023-03-03T08:23:16;96793.03;;;1.30;100.00
65614;BME280;52283;49.292;10.572;2023-03-03T08:25:43;96784.03;;;1.83;100.00
65614;BME280;52283;49.292;10.572;2023-03-03T08:28:10;96764.25;;;2.39;100.00
65614;BME280;52283;49.292;10.572;2023-03-03T08:30:38;96777.81;;;2.21;97.50
65614;BME280;52283;49.292;10.572;2023-03-03T08:33:04;96775.28;;;2.14;97.10
65614;BME280;52283;49.292;10.572;2023-03-03T08:35:31;96782.00;;;2.26;95.92
65614;BME280;52283;49.292;10.572;2023-03-03T08:37:59;96785.78;;;2.32;97.31
65614;BME280;52283;49.292;10.572;2023-03-03T08:40:25;96775.22;;;3.38;93.90
65614;BME280;52283;49.292;10.572;2023-03-03T08:42:52;96768.53;;;3.91;85.86
65614;BME280;52283;49.292;10.572;2023-03-03T08:45:19;96767.63;;;3.51;85.26
65614;BME280;52283;49.292;10.572;2023-03-03T08:47:46;96772.75;;;3.18;88.54
65614;BME280;52283;49.292;10.572;2023-03-03T08:50:14;96770.28;;;3.98;85.37
65614;BME280;52283;49.292;10.572;2023-03-03T08:52:41;96770.16;;;3.80;83.72
65614;BME280;52283;49.292;10.572;2023-03-03T08:55:10;96774.41;;;4.24;82.03
65614;BME280;52283;49.292;10.572;2023-03-03T08:57:37;96766.69;;;4.19;80.94
65614;BME280;52283;49.292;10.572;2023-03-03T09:00:05;96769.00;;;4.21;79.73
65614;BME280;52283;49.292;10.572;2023-03-03T09:02:32;96772.47;;;4.12;81.42
65614;BME280;52283;49.292;10.572;2023-03-03T09:04:58;96771.50;;;4.77;78.18
65614;BME280;52283;49.292;10.572;2023-03-03T09:07:25;96778.84;;;4.22;77.63
65614;BME280;52283;49.292;10.572;2023-03-03T09:09:51;96781.66;;;3.56;81.60
65614;BME280;52283;49.292;10.572;2023-03-03T09:12:26;96802.81;;;2.90;87.24
65614;BME280;52283;49.292;10.572;2023-03-03T09:14:55;96804.25;;;3.08;87.24
65614;BME280;52283;49.292;10.572;2023-03-03T09:17:25;96816.22;;;2.79;87.75
65614;BME280;52283;49.292;10.572;2023-03-03T09:19:57;96823.81;;;2.88;90.00
65614;BME280;52283;49.292;10.572;2023-03-03T09:22:25;96814.38;;;3.80;88.38
65614;BME280;52283;49.292;10.572;2023-03-03T09:24:53;96814.88;;;3.65;86.40
65614;BME280;52283;49.292;10.572;2023-03-03T09:27:26;96802.28;;;3.64;86.31
65614;BME280;52283;49.292;10.572;2023-03-03T09:29:53;96807.19;;;3.82;86.19
65614;BME280;52283;49.292;10.572;2023-03-03T09:32:29;96805.03;;;4.70;82.56
65614;BME280;52283;49.292;10.572;2023-03-03T09:34:57;96781.06;;;4.76;79.61
65614;BME280;52283;49.292;10.572;2023-03-03T09:37:26;96789.41;;;4.45;80.31
65614;BME280;52283;49.292;10.572;2023-03-03T09:39:57;96787.81;;;5.43;77.47
65614;BME280;52283;49.292;10.572;2023-03-03T09:42:46;96769.03;;;5.47;73.88
65614;BME280;52283;49.292;10.572;2023-03-03T09:45:33;96766.53;;;5.76;71.76
65614;BME280;52283;49.292;10.572;2023-03-03T09:48:23;96744.94;;;5.99;69.68
65614;BME280;52283;49.292;10.572;2023-03-03T09:51:00;96752.09;;;5.45;68.20
65614;BME280;52283;49.292;10.572;2023-03-03T09:53:41;96752.69;;;6.37;67.55
65614;BME280;52283;49.292;10.572;2023-03-03T09:56:15;96750.56;;;6.23;66.38
65614;BME280;52283;49.292;10.572;2023-03-03T09:58:59;96760.72;;;6.35;66.96
65614;BME280;52283;49.292;10.572;2023-03-03T10:01:49;96775.94;;;5.88;69.32
65614;BME280;52283;49.292;10.572;2023-03-03T10:04:44;96773.94;;;5.61;68.45
65614;BME280;52283;49.292;10.572;2023-03-03T10:07:22;96780.50;;;6.28;70.93
65614;BME280;52283;49.292;10.572;2023-03-03T10:12:51;96787.75;;;5.06;69.87
65614;BME280;52283;49.292;10.572;2023-03-03T10:15:31;96788.72;;;5.67;69.71
65614;BME280;52283;49.292;10.572;2023-03-03T10:18:04;96770.41;;;6.49;66.02
65614;BME280;52283;49.292;10.572;2023-03-03T10:20:39;96758.34;;;6.85;64.90
65614;BME280;52283;49.292;10.572;2023-03-03T10:23:17;96765.38;;;6.71;65.43
65614;BME280;52283;49.292;10.572;2023-03-03T10:25:52;96779.19;;;6.80;64.69
65614;BME280;52283;49.292;10.572;2023-03-03T10:28:48;96775.66;;;6.80;64.32
65614;BME280;52283;49.292;10.572;2023-03-03T10:31:32;96770.38;;;7.15;63.57
65614;BME280;52283;49.292;10.572;2023-03-03T10:34:09;96767.97;;;6.75;63.00
65614;BME280;52283;49.292;10.572;2023-03-03T10:36:50;96764.38;;;7.55;62.81
65614;BME280;52283;49.292;10.572;2023-03-03T10:39:37;96757.03;;;8.11;60.39
65614;BME280;52283;49.292;10.572;2023-03-03T10:42:16;96754.75;;;7.17;61.46
65614;BME280;52283;49.292;10.572;2023-03-03T10:44:57;96761.53;;;7.40;61.19
65614;BME280;52283;49.292;10.572;2023-03-03T10:47:36;96744.84;;;7.79;59.34
65614;BME280;52283;49.292;10.572;2023-03-03T10:50:15;96750.22;;;8.12;59.09
65614;BME280;52283;49.292;10.572;2023-03-03T10:52:48;96757.34;;;7.98;60.94
65614;BME280;52283;49.292;10.572;2023-03-03T10:55:33;96764.19;;;7.58;60.29
65614;BME280;52283;49.292;10.572;2023-03-03T11:00:56;96776.84;;;6.55;60.64
65614;BME280;52283;49.292;10.572;2023-03-03T11:03:55;96767.19;;;6.74;59.55
65614;BME280;52283;49.292;10.572;2023-03-03T11:06:34;96770.19;;;8.10;58.34
65614;BME280;52283;49.292;10.572;2023-03-03T11:09:10;96768.28;;;7.00;60.71
65614;BME280;52283;49.292;10.572;2023-03-03T11:11:47;96773.88;;;6.16;62.17
65614;BME280;52283;49.292;10.572;2023-03-03T11:14:22;96767.75;;;7.35;61.15
65614;BME280;52283;49.292;10.572;2023-03-03T11:16:57;96758.47;;;7.77;59.70
65614;BME280;52283;49.292;10.572;2023-03-03T11:19:42;96762.91;;;8.13;58.63
65614;BME280;52283;49.292;10.572;2023-03-03T11:22:25;96746.69;;;8.41;57.79
65614;BME280;52283;49.292;10.572;2023-03-03T11:25:02;96753.69;;;8.21;58.79
65614;BME280;52283;49.292;10.572;2023-03-03T11:28:02;96761.47;;;7.25;60.06
65614;BME280;52283;49.292;10.572;2023-03-03T11:30:48;96752.91;;;8.65;59.33
65614;BME280;52283;49.292;10.572;2023-03-03T11:33:22;96751.09;;;8.03;58.71
65614;BME280;52283;49.292;10.572;2023-03-03T11:36:06;96752.72;;;7.80;59.90
65614;BME280;52283;49.292;10.572;2023-03-03T11:38:44;96758.50;;;7.91;61.05
65614;BME280;52283;49.292;10.572;2023-03-03T11:41:19;96743.88;;;7.82;58.87
65614;BME280;52283;49.292;10.572;2023-03-03T11:43:51;96741.59;;;8.10;58.04
65614;BME280;52283;49.292;10.572;2023-03-03T11:46:22;96753.25;;;7.55;60.19
65614;BME280;52283;49.292;10.572;2023-03-03T11:48:53;96742.28;;;8.19;58.63
65614;BME280;52283;49.292;10.572;2023-03-03T11:51:37;96727.53;;;8.63;56.73
65614;BME280;52283;49.292;10.572;2023-03-03T11:54:09;96737.50;;;8.70;57.26
65614;BME280;52283;49.292;10.572;2023-03-03T11:56:41;96728.38;;;9.91;54.34
65614;BME280;52283;49.292;10.572;2023-03-03T11:59:31;96738.44;;;8.46;57.50
65614;BME280;52283;49.292;10.572;2023-03-03T12:02:05;96734.56;;;9.34;57.52
65614;BME280;52283;49.292;10.572;2023-03-03T12:04:38;96728.38;;;9.04;56.08
65614;BME280;52283;49.292;10.572;2023-03-03T12:07:19;96751.19;;;8.09;59.43
65614;BME280;52283;49.292;10.572;2023-03-03T12:09:55;96742.06;;;8.52;58.71
65614;BME280;52283;49.292;10.572;2023-03-03T12:12:28;96739.25;;;9.02;58.39
65614;BME280;52283;49.292;10.572;2023-03-03T12:15:05;96729.72;;;9.75;55.91
65614;BME280;52283;49.292;10.572;2023-03-03T12:20:31;96719.78;;;9.95;55.54
65614;BME280;52283;49.292;10.572;2023-03-03T12:23:16;96721.38;;;10.27;55.67
65614;BME280;52283;49.292;10.572;2023-03-03T12:25:50;96717.31;;;10.02;54.38
65614;BME280;52283;49.292;10.572;2023-03-03T12:28:24;96720.50;;;9.23;56.56
65614;BME280;52283;49.292;10.572;2023-03-03T12:31:18;96711.94;;;9.27;56.30
65614;BME280;52283;49.292;10.572;2023-03-03T12:33:51;96712.13;;;9.43;56.16
65614;BME280;52283;49.292;10.572;2023-03-03T12:36:31;96709.34;;;9.43;56.97
65614;BME280;52283;49.292;10.572;2023-03-03T12:39:09;96712.88;;;8.83;56.81
65614;BME280;52283;49.292;10.572;2023-03-03T12:41:42;96708.16;;;9.30;56.66
65614;BME280;52283;49.292;10.572;2023-03-03T12:44:17;96714.25;;;8.73;58.02
65614;BME280;52283;49.292;10.572;2023-03-03T12:46:54;96699.47;;;9.22;57.46
65614;BME280;52283;49.292;10.572;2023-03-03T12:49:26;96688.97;;;9.84;55.20
65614;BME280;52283;49.292;10.572;2023-03-03T12:52:07;96690.56;;;9.64;56.32
65614;BME280;52283;49.292;10.572;2023-03-03T12:54:56;96697.06;;;9.35;56.36
65614;BME280;52283;49.292;10.572;2023-03-03T12:57:33;96694.44;;;9.26;57.84
65614;BME280;52283;49.292;10.572;2023-03-03T13:00:24;96686.84;;;9.06;56.38
65614;BME280;52283;49.292;10.572;2023-03-03T13:03:00;96679.75;;;9.77;55.10
65614;BME280;52283;49.292;10.572;2023-03-03T13:05:37;96675.03;;;10.15;53.88
65614;BME280;52283;49.292;10.572;2023-03-03T13:08:20;96689.28;;;9.91;55.86
65614;BME280;52283;49.292;10.572;2023-03-03T13:11:00;96672.22;;;9.84;55.97
65614;BME280;52283;49.292;10.572;2023-03-03T13:13:34;96678.94;;;9.97;55.16
65614;BME280;52283;49.292;10.572;2023-03-03T13:16:04;96675.97;;;10.32;54.17